sensor_id;sensor_type;location;lat;lon;timestamp;pressure;altitude;pressure_sealevel;temperature;humidity
51452;BME280;37521;52.020;-1.740;2023-12-22T00:00:16;99485.50;;;7.34;100.00
51452;BME280;37521;52.020;-1.740;2023-12-22T00:02:45;99489.19;;;7.30;100.00
51452;BME280;37521;52.020;-1.740;2023-12-22T00:05:14;99479.78;;;7.25;100.00
51452;BME280;37521;52.020;-1.740;2023-12-22T00:07:43;99497.50;;;7.20;100.00
51452;BME280;37521;52.020;-1.740;2023-12-22T00:10:13;99493.41;;;7.13;100.00
51452;BME280;37521;52.020;-1.740;2023-12-22T00:12:41;99481.53;;;7.04;100.00
51452;BME280;37521;52.020;-1.740;2023-12-22T00:15:12;99491.41;;;6.97;100.00
51452;BME280;37521;52.020;-1.740;2023-12-22T00:17:40;99493.34;;;6.92;100.00
51452;BME280;37521;52.020;-1.740;2023-12-22T00:20:10;99489.19;;;6.87;100.00
51452;BME280;37521;52.020;-1.740;2023-12-22T00:22:41;99489.44;;;6.80;100.00
51452;BME280;37521;52.020;-1.740;2023-12-22T00:25:10;99497.38;;;6.79;100.00
51452;BME280;37521;52.020;-1.740;2023-12-22T00:27:39;99501.00;;;6.76;100.00
51452;BME280;37521;52.020;-1.740;2023-12-22T00:30:09;99504.47;;;6.77;100.00
51452;BME280;37521;52.020;-1.740;2023-12-22T00:32:40;99500.94;;;6.78;100.00
51452;BME280;37521;52.020;-1.740;2023-12-22T00:35:10;99494.22;;;6.71;100.00
51452;BME280;37521;52.020;-1.740;2023-12-22T00:37:39;99489.44;;;6.59;100.00
51452;BME280;37521;52.020;-1.740;2023-12-22T00:40:09;99492.50;;;6.46;100.00
51452;BME280;37521;52.020;-1.740;2023-12-22T00:42:38;99493.72;;;6.38;100.00
51452;BME280;37521;52.020;-1.740;2023-12-22T00:45:07;99489.63;;;6.31;100.00
51452;BME280;37521;52.020;-1.740;2023-12-22T00:47:35;99480.22;;;6.25;100.00
51452;BME280;37521;52.020;-1.740;2023-12-22T00:50:07;99483.84;;;6.21;100.00
51452;BME280;37521;52.020;-1.740;2023-12-22T00:52:36;99472.56;;;6.19;100.00
51452;BME280;37521;52.020;-1.740;2023-12-22T00:55:05;99484.88;;;6.17;100.00
51452;BME280;37521;52.020;-1.740;2023-12-22T00:57:34;99477.81;;;6.19;100.00
51452;BME280;37521;52.020;-1.740;2023-12-22T01:00:03;99475.25;;;6.17;100.00
51452;BME280;37521;52.020;-1.740;2023-12-22T01:02:33;99477.81;;;6.19;100.00
51452;BME280;37521;52.020;-1.740;2023-12-22T01:05:01;99483.00;;;6.20;100.00
51452;BME280;37521;52.020;-1.740;2023-12-22T01:07:32;99470.72;;;6.22;100.00
51452;BME280;37521;52.020;-1.740;2023-12-22T01:10:00;99466.19;;;6.26;100.00
51452;BME280;37521;52.020;-1.740;2023-12-22T01:12:31;99459.16;;;6.26;100.00
51452;BME280;37521;52.020;-1.740;2023-12-22T01:14:59;99458.25;;;6.27;100.00
51452;BME280;37521;52.020;-1.740;2023-12-22T01:17:28;99469.59;;;6.28;100.00
51452;BME280;37521;52.020;-1.740;2023-12-22T01:19:57;99470.41;;;6.30;100.00
51452;BME280;37521;52.020;-1.740;2023-12-22T01:22:26;99465.09;;;6.32;100.00
51452;BME280;37521;52.020;-1.740;2023-12-22T01:24:56;99473.75;;;6.34;100.00
51452;BME280;37521;52.020;-1.740;2023-12-22T01:27:25;99465.81;;;6.35;100.00
51452;BME280;37521;52.020;-1.740;2023-12-22T01:29:54;99455.31;;;6.37;100.00
51452;BME280;37521;52.020;-1.740;2023-12-22T01:32:22;99448.28;;;6.37;100.00
51452;BME280;37521;52.020;-1.740;2023-12-22T01:34:51;99435.97;;;6.39;100.00
51452;BME280;37521;52.020;-1.740;2023-12-22T01:37:20;99422.78;;;6.41;100.00
51452;BME280;37521;52.020;-1.740;2023-12-22T01:39:50;99428.88;;;6.41;100.00
51452;BME280;37521;52.020;-1.740;2023-12-22T01:42:20;99421.84;;;6.43;100.00
51452;BME280;37521;52.020;-1.740;2023-12-22T01:44:49;99428.78;;;6.44;100.00
51452;BME280;37521;52.020;-1.740;2023-12-22T01:47:18;99427.03;;;6.45;100.00
51452;BME280;37521;52.020;-1.740;2023-12-22T01:49:47;99416.47;;;6.46;100.00
51452;BME280;37521;52.020;-1.740;2023-12-22T01:52:16;99422.50;;;6.48;100.00
51452;BME280;37521;52.020;-1.740;2023-12-22T01:54:46;99425.00;;;6.51;100.00
51452;BME280;37521;52.020;-1.740;2023-12-22T01:57:15;99417.00;;;6.54;100.00
51452;BME280;37521;52.020;-1.740;2023-12-22T01:59:48;99419.63;;;6.54;100.00
51452;BME280;37521;52.020;-1.740;2023-12-22T02:02:18;99418.75;;;6.55;100.00
51452;BME280;37521;52.020;-1.740;2023-12-22T02:04:46;99422.16;;;6.58;100.00
51452;BME280;37521;52.020;-1.740;2023-12-22T02:07:15;99425.50;;;6.61;100.00
51452;BME280;37521;52.020;-1.740;2023-12-22T02:09:44;99427.22;;;6.62;100.00
51452;BME280;37521;52.020;-1.740;2023-12-22T02:12:13;99434.09;;;6.65;100.00
51452;BME280;37521;52.020;-1.740;2023-12-22T02:14:42;99427.78;;;6.70;100.00
51452;BME280;37521;52.020;-1.740;2023-12-22T02:17:20;99424.16;;;6.73;100.00
51452;BME280;37521;52.020;-1.740;2023-12-22T02:19:50;99425.84;;;6.74;100.00
51452;BME280;37521;52.020;-1.740;2023-12-22T02:22:19;99413.56;;;6.76;100.00
51452;BME280;37521;52.020;-1.740;2023-12-22T02:24:51;99435.34;;;6.78;100.00
51452;BME280;37521;52.020;-1.740;2023-12-22T02:27:28;99425.63;;;6.80;100.00
51452;BME280;37521;52.020;-1.740;2023-12-22T02:30:02;99432.56;;;6.81;100.00
51452;BME280;37521;52.020;-1.740;2023-12-22T02:32:34;99425.38;;;6.86;100.00
51452;BME280;37521;52.020;-1.740;2023-12-22T02:35:08;99434.03;;;6.88;100.00
51452;BME280;37521;52.020;-1.740;2023-12-22T02:37:39;99420.03;;;6.89;100.00
51452;BME280;37521;52.020;-1.740;2023-12-22T02:40:11;99408.59;;;6.90;100.00
51452;BME280;37521;52.020;-1.740;2023-12-22T02:42:40;99414.63;;;6.92;100.00
51452;BME280;37521;52.020;-1.740;2023-12-22T02:45:14;99406.63;;;6.95;100.00
51452;BME280;37521;52.020;-1.740;2023-12-22T02:47:43;99402.88;;;7.01;100.00
51452;BME280;37521;52.020;-1.740;2023-12-22T02:50:13;99401.94;;;7.03;100.00
51452;BME280;37521;52.020;-1.740;2023-12-22T02:52:42;99394.84;;;7.05;100.00
51452;BME280;37521;52.020;-1.740;2023-12-22T02:55:12;99389.72;;;7.02;100.00
51452;BME280;37521;52.020;-1.740;2023-12-22T02:57:41;99396.69;;;7.03;100.00
51452;BME280;37521;52.020;-1.740;2023-12-22T03:00:10;99396.69;;;7.03;100.00
51452;BME280;37521;52.020;-1.740;2023-12-22T03:02:39;99400.16;;;7.04;100.00
51452;BME280;37521;52.020;-1.740;2023-12-22T03:05:08;99385.19;;;7.06;100.00
51452;BME280;37521;52.020;-1.740;2023-12-22T03:07:37;99391.44;;;7.03;100.00
51452;BME280;37521;52.020;-1.740;2023-12-22T03:10:06;99395.81;;;7.03;100.00
51452;BME280;37521;52.020;-1.740;2023-12-22T03:12:36;99395.88;;;7.01;100.00
51452;BME280;37521;52.020;-1.740;2023-12-22T03:15:06;99394.97;;;7.02;100.00
51452;BME280;37521;52.020;-1.740;2023-12-22T03:17:35;99394.84;;;7.05;100.00
51452;BME280;37521;52.020;-1.740;2023-12-22T03:20:05;99392.06;;;7.08;100.00
51452;BME280;37521;52.020;-1.740;2023-12-22T03:22:33;99384.16;;;7.10;100.00
51452;BME280;37521;52.020;-1.740;2023-12-22T03:25:02;99377.84;;;7.14;100.00
51452;BME280;37521;52.020;-1.740;2023-12-22T03:27:31;99386.56;;;7.15;100.00
51452;BME280;37521;52.020;-1.740;2023-12-22T03:30:01;99389.06;;;7.18;100.00
51452;BME280;37521;52.020;-1.740;2023-12-22T03:32:31;99393.31;;;7.20;100.00
51452;BME280;37521;52.020;-1.740;2023-12-22T03:34:59;99377.47;;;7.23;100.00
51452;BME280;37521;52.020;-1.740;2023-12-22T03:37:28;99371.09;;;7.29;100.00
51452;BME280;37521;52.020;-1.740;2023-12-22T03:39:57;99367.56;;;7.30;100.00
51452;BME280;37521;52.020;-1.740;2023-12-22T03:42:25;99376.34;;;7.29;100.00
51452;BME280;37521;52.020;-1.740;2023-12-22T03:44:54;99361.22;;;7.34;100.00
51452;BME280;37521;52.020;-1.740;2023-12-22T03:47:24;99377.66;;;7.39;100.00
51452;BME280;37521;52.020;-1.740;2023-12-22T03:49:53;99372.25;;;7.42;100.00
51452;BME280;37521;52.020;-1.740;2023-12-22T03:52:22;99373.91;;;7.45;100.00
51452;BME280;37521;52.020;-1.740;2023-12-22T03:54:50;99373.81;;;7.46;100.00
51452;BME280;37521;52.020;-1.740;2023-12-22T03:57:19;99363.25;;;7.48;100.00
51452;BME280;37521;52.020;-1.740;2023-12-22T03:59:48;99366.59;;;7.51;100.00
51452;BME280;37521;52.020;-1.740;2023-12-22T04:02:17;99369.09;;;7.54;100.00
51452;BME280;37521;52.020;-1.740;2023-12-22T04:04:47;99368.16;;;7.55;100.00
51452;BME280;37521;52.020;-1.740;2023-12-22T04:07:16;99370.88;;;7.54;100.00
51452;BME280;37521;52.020;-1.740;2023-12-22T04:09:45;99371.94;;;7.50;100.00
51452;BME280;37521;52.020;-1.740;2023-12-22T04:12:13;99372.19;;;7.44;100.00
51452;BME280;37521;52.020;-1.740;2023-12-22T04:14:42;99374.25;;;7.37;100.00
51452;BME280;37521;52.020;-1.740;2023-12-22T04:17:11;99371.81;;;7.32;100.00
51452;BME280;37521;52.020;-1.740;2023-12-22T04:19:40;99379.69;;;7.32;100.00
51452;BME280;37521;52.020;-1.740;2023-12-22T04:22:10;99373.72;;;7.29;100.00
51452;BME280;37521;52.020;-1.740;2023-12-22T04:24:39;99374.69;;;7.26;100.00
51452;BME280;37521;52.020;-1.740;2023-12-22T04:27:07;99376.59;;;7.23;100.00
51452;BME280;37521;52.020;-1.740;2023-12-22T04:29:36;99372.25;;;7.22;100.00
51452;BME280;37521;52.020;-1.740;2023-12-22T04:32:05;99371.47;;;7.20;100.00
51452;BME280;37521;52.020;-1.740;2023-12-22T04:34:34;99376.72;;;7.20;100.00
51452;BME280;37521;52.020;-1.740;2023-12-22T04:37:03;99383.75;;;7.19;100.00
51452;BME280;37521;52.020;-1.740;2023-12-22T04:39:33;99367.06;;;7.20;100.00
51452;BME280;37521;52.020;-1.740;2023-12-22T04:42:02;99364.38;;;7.22;100.00
51452;BME280;37521;52.020;-1.740;2023-12-22T04:44:30;99368.84;;;7.20;100.00
51452;BME280;37521;52.020;-1.740;2023-12-22T04:46:59;99363.75;;;7.17;100.00
51452;BME280;37521;52.020;-1.740;2023-12-22T04:49:28;99357.69;;;7.15;100.00
51452;BME280;37521;52.020;-1.740;2023-12-22T04:51:56;99365.63;;;7.13;100.00
51452;BME280;37521;52.020;-1.740;2023-12-22T04:54:28;99353.44;;;7.12;100.00
51452;BME280;37521;52.020;-1.740;2023-12-22T04:56:58;99339.53;;;7.10;100.00
51452;BME280;37521;52.020;-1.740;2023-12-22T04:59:27;99344.69;;;7.12;100.00
51452;BME280;37521;52.020;-1.740;2023-12-22T05:01:56;99349.94;;;7.12;100.00
51452;BME280;37521;52.020;-1.740;2023-12-22T05:04:25;99349.94;;;7.12;100.00
51452;BME280;37521;52.020;-1.740;2023-12-22T05:06:54;99344.63;;;7.13;100.00
51452;BME280;37521;52.020;-1.740;2023-12-22T05:09:22;99345.47;;;7.14;100.00
51452;BME280;37521;52.020;-1.740;2023-12-22T05:11:52;99354.16;;;7.16;100.00
51452;BME280;37521;52.020;-1.740;2023-12-22T05:14:22;99348.78;;;7.19;100.00
51452;BME280;37521;52.020;-1.740;2023-12-22T05:16:51;99358.16;;;7.24;100.00
51452;BME280;37521;52.020;-1.740;2023-12-22T05:19:23;99347.50;;;7.27;100.00
51452;BME280;37521;52.020;-1.740;2023-12-22T05:21:51;99362.31;;;7.30;100.00
51452;BME280;37521;52.020;-1.740;2023-12-22T05:24:23;99355.97;;;7.34;100.00
51452;BME280;37521;52.020;-1.740;2023-12-22T05:26:52;99368.06;;;7.38;100.00
51452;BME280;37521;52.020;-1.740;2023-12-22T05:29:22;99381.84;;;7.43;100.00
51452;BME280;37521;52.020;-1.740;2023-12-22T05:31:51;99377.50;;;7.42;100.00
51452;BME280;37521;52.020;-1.740;2023-12-22T05:34:20;99385.59;;;7.37;100.00
51452;BME280;37521;52.020;-1.740;2023-12-22T05:36:49;99393.66;;;7.33;100.00
51452;BME280;37521;52.020;-1.740;2023-12-22T05:39:17;99390.38;;;7.28;100.00
51452;BME280;37521;52.020;-1.740;2023-12-22T05:41:46;99382.72;;;7.23;100.00
51452;BME280;37521;52.020;-1.740;2023-12-22T05:44:15;99378.56;;;7.18;100.00
51452;BME280;37521;52.020;-1.740;2023-12-22T05:46:45;99368.25;;;7.13;100.00
51452;BME280;37521;52.020;-1.740;2023-12-22T05:49:14;99373.84;;;7.05;100.00
51452;BME280;37521;52.020;-1.740;2023-12-22T05:51:43;99372.25;;;7.01;100.00
51452;BME280;37521;52.020;-1.740;2023-12-22T05:54:12;99378.63;;;6.96;100.00
51452;BME280;37521;52.020;-1.740;2023-12-22T05:56:40;99382.22;;;6.93;100.00
51452;BME280;37521;52.020;-1.740;2023-12-22T05:59:09;99385.84;;;6.91;100.00
51452;BME280;37521;52.020;-1.740;2023-12-22T06:01:38;99392.03;;;6.88;100.00
51452;BME280;37521;52.020;-1.740;2023-12-22T06:04:08;99400.06;;;6.85;100.00
51452;BME280;37521;52.020;-1.740;2023-12-22T06:06:38;99390.53;;;6.82;100.00
51452;BME280;37521;52.020;-1.740;2023-12-22T06:09:07;99391.44;;;6.81;100.00
51452;BME280;37521;52.020;-1.740;2023-12-22T06:11:39;99380.09;;;6.81;100.00
51452;BME280;37521;52.020;-1.740;2023-12-22T06:14:07;99392.44;;;6.79;100.00
51452;BME280;37521;52.020;-1.740;2023-12-22T06:16:36;99390.72;;;6.78;100.00
51452;BME280;37521;52.020;-1.740;2023-12-22T06:19:05;99395.97;;;6.78;100.00
51452;BME280;37521;52.020;-1.740;2023-12-22T06:21:37;99392.44;;;6.79;100.00
51452;BME280;37521;52.020;-1.740;2023-12-22T06:24:06;99392.28;;;6.82;100.00
51452;BME280;37521;52.020;-1.740;2023-12-22T06:26:35;99407.06;;;6.85;100.00
51452;BME280;37521;52.020;-1.740;2023-12-22T06:29:04;99408.78;;;6.86;100.00
51452;BME280;37521;52.020;-1.740;2023-12-22T06:31:33;99398.28;;;6.86;100.00
51452;BME280;37521;52.020;-1.740;2023-12-22T06:34:01;99405.38;;;6.83;100.00
51452;BME280;37521;52.020;-1.740;2023-12-22T06:36:30;99401.81;;;6.85;100.00
51452;BME280;37521;52.020;-1.740;2023-12-22T06:39:00;99406.16;;;6.86;100.00
51452;BME280;37521;52.020;-1.740;2023-12-22T06:41:30;99410.63;;;6.83;100.00
51452;BME280;37521;52.020;-1.740;2023-12-22T06:44:00;99410.63;;;6.83;100.00
51452;BME280;37521;52.020;-1.740;2023-12-22T06:46:29;99421.81;;;6.87;100.00
51452;BME280;37521;52.020;-1.740;2023-12-22T06:48:59;99425.25;;;6.89;100.00
51452;BME280;37521;52.020;-1.740;2023-12-22T06:51:31;99441.88;;;6.90;100.00
51452;BME280;37521;52.020;-1.740;2023-12-22T06:54:04;99428.66;;;6.91;100.00
51452;BME280;37521;52.020;-1.740;2023-12-22T06:56:34;99423.34;;;6.93;100.00
51452;BME280;37521;52.020;-1.740;2023-12-22T06:59:03;99431.16;;;6.94;100.00
51452;BME280;37521;52.020;-1.740;2023-12-22T07:01:32;99431.22;;;6.93;100.00
51452;BME280;37521;52.020;-1.740;2023-12-22T07:04:03;99429.53;;;6.92;100.00
51452;BME280;37521;52.020;-1.740;2023-12-22T07:06:33;99430.38;;;6.92;100.00
51452;BME280;37521;52.020;-1.740;2023-12-22T07:09:34;99442.47;;;6.96;100.00
51452;BME280;37521;52.020;-1.740;2023-12-22T07:12:03;99437.22;;;6.96;100.00
51452;BME280;37521;52.020;-1.740;2023-12-22T07:14:34;99448.59;;;6.95;100.00
51452;BME280;37521;52.020;-1.740;2023-12-22T07:17:03;99449.53;;;6.94;100.00
51452;BME280;37521;52.020;-1.740;2023-12-22T07:19:32;99453.06;;;6.93;100.00
51452;BME280;37521;52.020;-1.740;2023-12-22T07:22:02;99443.50;;;6.92;100.00
51452;BME280;37521;52.020;-1.740;2023-12-22T07:24:31;99444.28;;;6.94;100.00
51452;BME280;37521;52.020;-1.740;2023-12-22T07:27:01;99440.72;;;6.95;100.00
51452;BME280;37521;52.020;-1.740;2023-12-22T07:29:30;99438.19;;;6.94;100.00
51452;BME280;37521;52.020;-1.740;2023-12-22T07:31:59;99438.25;;;6.92;100.00
51452;BME280;37521;52.020;-1.740;2023-12-22T07:34:28;99443.34;;;6.95;100.00
51452;BME280;37521;52.020;-1.740;2023-12-22T07:36:57;99445.94;;;6.97;100.00
51452;BME280;37521;52.020;-1.740;2023-12-22T07:39:33;99445.03;;;6.98;100.00
51452;BME280;37521;52.020;-1.740;2023-12-22T07:42:06;99461.47;;;7.01;100.00
51452;BME280;37521;52.020;-1.740;2023-12-22T07:44:34;99449.28;;;7.00;100.00
51452;BME280;37521;52.020;-1.740;2023-12-22T07:47:03;99463.41;;;6.98;100.00
51452;BME280;37521;52.020;-1.740;2023-12-22T07:49:34;99459.06;;;6.97;100.00
51452;BME280;37521;52.020;-1.740;2023-12-22T07:52:03;99445.13;;;6.95;100.00
51452;BME280;37521;52.020;-1.740;2023-12-22T07:54:32;99463.56;;;6.93;100.00
51452;BME280;37521;52.020;-1.740;2023-12-22T07:57:01;99463.72;;;6.90;100.00
51452;BME280;37521;52.020;-1.740;2023-12-22T07:59:31;99459.41;;;6.88;100.00
51452;BME280;37521;52.020;-1.740;2023-12-22T08:02:00;99468.28;;;6.85;100.00
51452;BME280;37521;52.020;-1.740;2023-12-22T08:04:29;99459.63;;;6.83;100.00
51452;BME280;37521;52.020;-1.740;2023-12-22T08:06:57;99469.91;;;6.88;100.00
51452;BME280;37521;52.020;-1.740;2023-12-22T08:09:26;99481.22;;;6.90;100.00
51452;BME280;37521;52.020;-1.740;2023-12-22T08:11:55;99481.16;;;6.91;100.00
51452;BME280;37521;52.020;-1.740;2023-12-22T08:14:24;99485.56;;;6.91;100.00
51452;BME280;37521;52.020;-1.740;2023-12-22T08:16:54;99491.66;;;6.91;100.00
51452;BME280;37521;52.020;-1.740;2023-12-22T08:19:23;99488.13;;;6.92;100.00
51452;BME280;37521;52.020;-1.740;2023-12-22T08:21:56;99493.28;;;6.94;100.00
51452;BME280;37521;52.020;-1.740;2023-12-22T08:24:28;99502.00;;;6.94;100.00
51452;BME280;37521;52.020;-1.740;2023-12-22T08:26:57;99499.38;;;6.94;100.00
51452;BME280;37521;52.020;-1.740;2023-12-22T08:29:26;99496.78;;;6.94;100.00
51452;BME280;37521;52.020;-1.740;2023-12-22T08:31:56;99498.53;;;6.94;100.00
51452;BME280;37521;52.020;-1.740;2023-12-22T08:34:25;99496.06;;;6.91;100.00
51452;BME280;37521;52.020;-1.740;2023-12-22T08:36:54;99498.75;;;6.89;100.00
51452;BME280;37521;52.020;-1.740;2023-12-22T08:39:22;99498.75;;;6.89;100.00
51452;BME280;37521;52.020;-1.740;2023-12-22T08:41:54;99506.63;;;6.89;100.00
51452;BME280;37521;52.020;-1.740;2023-12-22T08:44:22;99504.84;;;6.90;100.00
51452;BME280;37521;52.020;-1.740;2023-12-22T08:46:51;99499.53;;;6.91;100.00
51452;BME280;37521;52.020;-1.740;2023-12-22T08:49:21;99496.06;;;6.91;100.00
51452;BME280;37521;52.020;-1.740;2023-12-22T08:51:50;99494.38;;;6.88;100.00
51452;BME280;37521;52.020;-1.740;2023-12-22T08:54:19;99510.13;;;6.88;100.00
51452;BME280;37521;52.020;-1.740;2023-12-22T08:56:47;99509.28;;;6.88;100.00
51452;BME280;37521;52.020;-1.740;2023-12-22T08:59:16;99508.31;;;6.90;100.00
51452;BME280;37521;52.020;-1.740;2023-12-22T09:01:45;99515.22;;;6.93;100.00
51452;BME280;37521;52.020;-1.740;2023-12-22T09:04:13;99521.31;;;6.93;100.00
51452;BME280;37521;52.020;-1.740;2023-12-22T09:06:44;99523.84;;;6.96;100.00
51452;BME280;37521;52.020;-1.740;2023-12-22T09:09:13;99529.72;;;7.01;100.00
51452;BME280;37521;52.020;-1.740;2023-12-22T09:11:42;99517.41;;;7.03;100.00
51452;BME280;37521;52.020;-1.740;2023-12-22T09:14:11;99527.94;;;7.03;100.00
51452;BME280;37521;52.020;-1.740;2023-12-22T09:16:40;99534.88;;;7.04;100.00
51452;BME280;37521;52.020;-1.740;2023-12-22T09:19:11;99534.69;;;7.09;100.00
51452;BME280;37521;52.020;-1.740;2023-12-22T09:21:40;99532.88;;;7.11;100.00
51452;BME280;37521;52.020;-1.740;2023-12-22T09:24:13;99530.25;;;7.11;100.00
51452;BME280;37521;52.020;-1.740;2023-12-22T09:26:42;99532.94;;;7.09;100.00
51452;BME280;37521;52.020;-1.740;2023-12-22T09:29:10;99541.59;;;7.12;100.00
51452;BME280;37521;52.020;-1.740;2023-12-22T09:31:39;99549.28;;;7.16;100.00
51452;BME280;37521;52.020;-1.740;2023-12-22T09:34:08;99543.81;;;7.22;100.00
51452;BME280;37521;52.020;-1.740;2023-12-22T09:36:37;99556.72;;;7.27;100.00
51452;BME280;37521;52.020;-1.740;2023-12-22T09:39:07;99565.22;;;7.33;100.00
51452;BME280;37521;52.020;-1.740;2023-12-22T09:41:37;99564.25;;;7.36;100.00
51452;BME280;37521;52.020;-1.740;2023-12-22T09:44:06;99564.91;;;7.41;100.00
51452;BME280;37521;52.020;-1.740;2023-12-22T09:46:35;99554.16;;;7.47;100.00
51452;BME280;37521;52.020;-1.740;2023-12-22T09:49:04;99570.66;;;7.51;100.00
51452;BME280;37521;52.020;-1.740;2023-12-22T09:51:34;99572.22;;;7.55;100.00
51452;BME280;37521;52.020;-1.740;2023-12-22T09:54:04;99554.50;;;7.60;100.00
51452;BME280;37521;52.020;-1.740;2023-12-22T09:56:37;99541.44;;;7.58;100.00
51452;BME280;37521;52.020;-1.740;2023-12-22T09:59:11;99568.56;;;7.59;100.00
51452;BME280;37521;52.020;-1.740;2023-12-22T10:01:43;99560.50;;;7.63;100.00
51452;BME280;37521;52.020;-1.740;2023-12-22T10:04:13;99566.47;;;7.67;100.00
51452;BME280;37521;52.020;-1.740;2023-12-22T10:06:44;99569.94;;;7.68;100.00
51452;BME280;37521;52.020;-1.740;2023-12-22T10:09:15;99578.69;;;7.68;100.00
51452;BME280;37521;52.020;-1.740;2023-12-22T10:11:49;99576.88;;;7.70;100.00
51452;BME280;37521;52.020;-1.740;2023-12-22T10:14:18;99578.50;;;7.73;100.00
51452;BME280;37521;52.020;-1.740;2023-12-22T10:16:49;99585.34;;;7.77;100.00
51452;BME280;37521;52.020;-1.740;2023-12-22T10:19:18;99597.56;;;7.78;100.00
51452;BME280;37521;52.020;-1.740;2023-12-22T10:21:48;99591.53;;;7.76;100.00
51452;BME280;37521;52.020;-1.740;2023-12-22T10:24:36;99584.44;;;7.78;100.00
51452;BME280;37521;52.020;-1.740;2023-12-22T10:27:06;99582.72;;;7.77;100.00
51452;BME280;37521;52.020;-1.740;2023-12-22T10:29:35;99597.75;;;7.73;100.00
51452;BME280;37521;52.020;-1.740;2023-12-22T10:32:05;99600.56;;;7.69;100.00
51452;BME280;37521;52.020;-1.740;2023-12-22T10:34:35;99604.00;;;7.71;100.00
51452;BME280;37521;52.020;-1.740;2023-12-22T10:37:04;99595.19;;;7.72;100.00
51452;BME280;37521;52.020;-1.740;2023-12-22T10:39:36;99594.09;;;7.77;100.00
51452;BME280;37521;52.020;-1.740;2023-12-22T10:42:07;99581.63;;;7.82;100.00
51452;BME280;37521;52.020;-1.740;2023-12-22T10:44:40;99598.69;;;7.92;100.00
51452;BME280;37521;52.020;-1.740;2023-12-22T10:47:09;99603.03;;;8.14;100.00
51452;BME280;37521;52.020;-1.740;2023-12-22T10:49:38;99597.44;;;8.22;100.00
51452;BME280;37521;52.020;-1.740;2023-12-22T10:52:15;99596.59;;;8.21;100.00
51452;BME280;37521;52.020;-1.740;2023-12-22T10:54:45;99601.94;;;8.19;100.00
51452;BME280;37521;52.020;-1.740;2023-12-22T10:57:17;99596.81;;;8.16;100.00
51452;BME280;37521;52.020;-1.740;2023-12-22T10:59:47;99598.84;;;8.10;100.00
51452;BME280;37521;52.020;-1.740;2023-12-22T11:02:27;99597.19;;;8.07;100.00
51452;BME280;37521;52.020;-1.740;2023-12-22T11:05:00;99602.34;;;8.10;100.00
51452;BME280;37521;52.020;-1.740;2023-12-22T11:07:30;99590.22;;;8.06;100.00
51452;BME280;37521;52.020;-1.740;2023-12-22T11:10:03;99591.75;;;8.12;100.00
51452;BME280;37521;52.020;-1.740;2023-12-22T11:12:35;99578.59;;;8.12;100.00
51452;BME280;37521;52.020;-1.740;2023-12-22T11:15:06;99583.19;;;8.07;100.00
51452;BME280;37521;52.020;-1.740;2023-12-22T11:17:37;99578.00;;;8.05;100.00
51452;BME280;37521;52.020;-1.740;2023-12-22T11:20:09;99569.19;;;8.06;100.00
51452;BME280;37521;52.020;-1.740;2023-12-22T11:22:39;99570.78;;;8.10;100.00
51452;BME280;37521;52.020;-1.740;2023-12-22T11:25:08;99581.94;;;8.15;100.00
51452;BME280;37521;52.020;-1.740;2023-12-22T11:27:43;99582.00;;;8.14;100.00
51452;BME280;37521;52.020;-1.740;2023-12-22T11:30:14;99570.63;;;8.13;100.00
51452;BME280;37521;52.020;-1.740;2023-12-22T11:32:44;99575.63;;;8.19;100.00
51452;BME280;37521;52.020;-1.740;2023-12-22T11:35:14;99581.66;;;8.22;100.00
51452;BME280;37521;52.020;-1.740;2023-12-22T11:37:45;99580.22;;;8.14;100.00
51452;BME280;37521;52.020;-1.740;2023-12-22T11:40:15;99568.94;;;8.12;100.00
51452;BME280;37521;52.020;-1.740;2023-12-22T11:42:49;99569.69;;;8.14;100.00
51452;BME280;37521;52.020;-1.740;2023-12-22T11:45:19;99578.25;;;8.19;100.00
51452;BME280;37521;52.020;-1.740;2023-12-22T11:47:50;99569.94;;;8.29;100.00
51452;BME280;37521;52.020;-1.740;2023-12-22T11:50:29;99564.34;;;8.38;100.00
51452;BME280;37521;52.020;-1.740;2023-12-22T11:53:19;99557.09;;;8.43;100.00
51452;BME280;37521;52.020;-1.740;2023-12-22T11:55:59;99569.44;;;8.41;100.00
51452;BME280;37521;52.020;-1.740;2023-12-22T11:58:38;99553.66;;;8.41;100.00
51452;BME280;37521;52.020;-1.740;2023-12-22T12:01:09;99564.19;;;8.41;100.00
51452;BME280;37521;52.020;-1.740;2023-12-22T12:03:42;99569.69;;;8.35;100.00
51452;BME280;37521;52.020;-1.740;2023-12-22T12:06:21;99571.38;;;8.37;100.00
51452;BME280;37521;52.020;-1.740;2023-12-22T12:08:51;99576.38;;;8.43;100.00
51452;BME280;37521;52.020;-1.740;2023-12-22T12:11:21;99590.97;;;8.51;100.00
51452;BME280;37521;52.020;-1.740;2023-12-22T12:13:51;99590.09;;;8.50;100.00
51452;BME280;37521;52.020;-1.740;2023-12-22T12:16:22;99602.06;;;8.57;100.00
51452;BME280;37521;52.020;-1.740;2023-12-22T12:18:51;99605.31;;;8.62;100.00
51452;BME280;37521;52.020;-1.740;2023-12-22T12:21:21;99602.38;;;8.70;100.00
51452;BME280;37521;52.020;-1.740;2023-12-22T12:23:51;99604.16;;;8.69;100.00
51452;BME280;37521;52.020;-1.740;2023-12-22T12:26:20;99615.72;;;8.65;100.00
51452;BME280;37521;52.020;-1.740;2023-12-22T12:28:51;99602.69;;;8.62;100.00
51452;BME280;37521;52.020;-1.740;2023-12-22T12:31:35;99598.63;;;8.55;100.00
51452;BME280;37521;52.020;-1.740;2023-12-22T12:34:05;99594.44;;;8.51;100.00
51452;BME280;37521;52.020;-1.740;2023-12-22T12:36:34;99593.63;;;8.49;100.00
51452;BME280;37521;52.020;-1.740;2023-12-22T12:39:06;99581.28;;;8.51;100.00
51452;BME280;37521;52.020;-1.740;2023-12-22T12:41:40;99586.47;;;8.53;100.00
51452;BME280;37521;52.020;-1.740;2023-12-22T12:44:13;99577.72;;;8.52;100.00
51452;BME280;37521;52.020;-1.740;2023-12-22T12:46:43;99586.56;;;8.51;100.00
51452;BME280;37521;52.020;-1.740;2023-12-22T12:49:14;99579.59;;;8.50;100.00
51452;BME280;37521;52.020;-1.740;2023-12-22T12:51:54;99587.53;;;8.49;100.00
51452;BME280;37521;52.020;-1.740;2023-12-22T12:54:32;99591.66;;;8.54;100.00
51452;BME280;37521;52.020;-1.740;2023-12-22T12:57:03;99584.56;;;8.56;100.00
51452;BME280;37521;52.020;-1.740;2023-12-22T12:59:34;99592.47;;;8.56;100.00
51452;BME280;37521;52.020;-1.740;2023-12-22T13:02:03;99593.50;;;8.52;100.00
51452;BME280;37521;52.020;-1.740;2023-12-22T13:04:37;99601.59;;;8.48;100.00